Latest Coastal Weather Observations for East Sale

IDV60701

Issued at 9:51 am EDT Tuesday 28 February 2017 (issued every 10 minutes, with the page automatically refreshed every 10 minutes)

About coastal observations | Map of coastal stations | Coastal observations for VIC | Marine services | Other Formats
Station Details ID: 085072 Name: EAST SALE AIRPORT Lat: -38.12 Lon: 147.13 Height: 4.6 m
Data from the previous 72 hours. | See also: Recent months at East Sale
Date/Time
EDT
Temp
°C
Wind Pressure Rain since
9am
mm
Weather Cloud Vis
km
Sea
Height
m
Swell
Dir  Spd
kts
Gust
kts
hPa Trend Height
m
Period
s
Dir
28/09:30am 16.3 WSW 3 5 1022.6 - 0.0 - Partly cloudy 10 - - - -
28/09:12am 15.5 WSW 3 5 1022.6 - 0.0 - Partly cloudy 3 - - - -
28/09:00am 15.0 W 4 6 1022.6 R 0.0 - Cloudy 5 - - - -
28/08:30am 14.4 WNW 5 6 1022.4 - 0.0 Fog Cloudy 0.3 - - - -
28/08:00am 14.1 NW 5 6 1022.2 - 0.0 - Cloudy 0.6 - - - -
28/07:47am 13.7 NW 5 5 1022.2 - 0.0 - Partly cloudy 5 - - - -
28/07:37am 13.6 NW 3 5 1022.1 - 0.0 - Partly cloudy 10 - - - -
28/07:30am 13.6 NW 3 4 1022.0 - 0.0 Mist Partly cloudy 3 - - - -
28/07:00am 13.8 SW 6 7 1021.7 - 0.0 - Partly cloudy 0.5 - - - -
28/06:30am 13.5 CALM 0 0 1021.7 - 0.0 - Cloudy 0.1 - - - -
28/06:00am 12.9 CALM 0 0 1021.5 F 0.0 - Cloudy 0.2 - - - -
28/05:30am 12.4 NE 3 4 1021.3 - 0.0 - Cloudy 0.2 - - - -
28/05:00am 12.4 N 3 4 1021.2 - 0.0 - Cloudy 0.2 - - - -
28/04:30am 11.6 N 4 6 1021.1 - 0.0 - Partly cloudy 1 - - - -
28/04:28am 11.9 N 5 6 1021.1 - 0.0 - Partly cloudy 1 - - - -
28/04:19am 12.3 N 4 6 1021.1 - 0.0 - Partly cloudy 5 - - - -
28/04:00am 13.0 NW 3 4 1021.1 - 0.0 - - 8 - - - -
28/03:32am 12.8 WNW 3 4 1021.3 - 0.0 - - 10 - - - -
28/03:30am 12.7 WNW 3 4 1021.3 - 0.0 - - 10 - - - -
28/03:14am 13.0 NW 3 4 1021.5 - 0.0 - - 5 - - - -
28/03:01am 13.1 NW 3 4 1021.7 - 0.0 - Partly cloudy 10 - - - -
28/03:00am 13.1 NW 3 4 1021.7 F 0.0 - Mostly clear 10 - - - -
28/02:36am 13.4 WNW 5 5 1021.8 - 0.0 - Partly cloudy 5 - - - -
28/02:30am 13.3 WNW 5 5 1021.8 - 0.0 - Partly cloudy 10 - - - -
28/02:00am 13.1 WNW 4 5 1022.2 - 0.0 - - 10 - - - -
28/01:30am 13.1 WNW 4 5 1022.4 - 0.0 - - 10 - - - -
28/01:00am 14.5 WSW 3 4 1022.6 - 0.0 - - 10 - - - -
28/12:30am 15.8 SW 3 4 1022.7 - 0.0 - - 10 - - - -
28/12:00am 14.5 SW 4 5 1022.8 F 0.0 - - 10 - - - -
 
Date/Time
EDT
Temp
°C
Wind Pressure Rain since
9am
mm
Weather Cloud Vis
km
Sea
Height
m
Swell
Dir  Spd
kts
Gust
kts
hPa Trend Height
m
Period
s
Dir
27/11:30pm 16.4 SSW 4 5 1022.9 - 0.0 - - 10 - - - -
27/11:00pm 16.2 S 4 5 1023.1 - 0.0 - - 10 - - - -
27/10:30pm 16.7 S 5 6 1023.2 - 0.0 - - 10 - - - -
27/10:00pm 17.0 SSE 5 6 1023.3 - 0.0 - - 10 - - - -
27/09:30pm 17.8 SE 4 6 1023.3 - 0.0 - - 10 - - - -
27/09:00pm 18.4 SE 6 7 1023.2 R 0.0 - - 10 - - - -
27/08:30pm 18.6 ESE 8 9 1023.0 - 0.0 - - 10 - - - -
27/08:00pm 20.1 ESE 8 10 1022.8 - 0.0 - - 10 - - - -
27/07:30pm 21.2 ESE 11 14 1022.5 - 0.0 - - 10 - - - -
27/07:00pm 22.4 ESE 13 16 1022.3 - 0.0 - - 10 - - - -
27/06:30pm 23.5 E 13 16 1022.1 - 0.0 - - 10 - - - -
27/06:00pm 24.1 E 13 16 1021.8 F 0.0 - - 10 - - - -
27/05:30pm 24.7 ESE 16 19 1021.7 - 0.0 - - 10 - - - -
27/05:00pm 25.1 ESE 15 19 1021.6 - 0.0 - - 10 - - - -
27/04:30pm 25.8 ESE 14 19 1021.7 - 0.0 - - 10 - - - -
27/04:00pm 26.0 ESE 13 19 1021.8 - 0.0 - - 10 - - - -
27/03:30pm 26.6 ESE 13 18 1022.0 - 0.0 - - 10 - - - -
27/03:00pm 25.9 ESE 12 17 1022.3 R 0.0 - - 10 - - - -
27/02:30pm 25.9 ESE 12 18 1022.6 - 0.0 - - 10 - - - -
27/02:00pm 24.9 ESE 10 15 1022.8 - 0.0 - - 10 - - - -
27/01:30pm 25.4 ESE 8 14 1022.9 - 0.0 - - 10 - - - -
27/01:00pm 24.7 SSE 6 10 1023.0 - 0.0 - - 10 - - - -
27/12:30pm 23.6 SE 7 10 1023.4 - 0.0 - - 10 - - - -
27/12:00pm 23.6 ESE 9 12 1023.4 F 0.0 - - 10 - - - -
27/11:30am 22.6 ESE 8 11 1023.8 - 0.0 - - 10 - - - -
27/11:00am 21.5 E 8 11 1024.0 - 0.0 - - 10 - - - -
27/10:30am 20.5 ESE 6 8 1024.1 - 0.0 - - 10 - - - -
27/10:00am 19.5 SSE 5 7 1024.1 - 0.0 - - 10 - - - -
27/09:30am 17.1 E 3 5 1024.0 - 0.0 - - 10 - - - -
27/09:00am 16.2 SSE 2 3 1024.1 R 0.0 - - 10 - - - -
27/08:30am 14.2 CALM 0 0 1024.0 - 0.0 - - 10 - - - -
27/08:00am 12.8 CALM 0 0 1024.0 - 0.0 - - 10 - - - -
27/07:51am 12.5 CALM 0 0 1024.0 - 0.0 - - 10 - - - -
27/07:32am 10.5 CALM 0 0 1023.7 - 0.0 - - 5 - - - -
27/07:30am 10.5 CALM 0 0 1023.7 - 0.0 Shallow fog - 10 - - - -
27/07:00am 9.8 CALM 0 0 1023.4 - 0.0 - - 10 - - - -
27/06:30am 9.5 CALM 0 0 1023.0 - 0.0 - - 10 - - - -
27/06:00am 10.0 NW 2 3 1022.7 F 0.0 - - 10 - - - -
27/05:30am 10.9 NNW 3 4 1022.5 - 0.0 - - 10 - - - -
27/05:00am 10.7 N 4 5 1022.3 - 0.0 - - 10 - - - -
27/04:30am 11.3 NW 5 6 1022.5 - 0.0 - - 10 - - - -
27/04:00am 11.5 NW 4 5 1022.4 - 0.0 - - 10 - - - -
27/03:30am 11.6 NNW 4 5 1022.5 - 0.0 - - 10 - - - -
27/03:00am 12.4 CALM 0 2 1022.8 F 0.0 - - 10 - - - -
27/02:30am 13.7 SW 4 5 1023.0 - 0.0 - - 10 - - - -
27/02:00am 14.7 CALM 0 0 1023.1 - 0.0 - - 10 - - - -
27/01:30am 15.5 CALM 0 0 1023.3 - 0.0 - - 10 - - - -
27/01:00am 15.3 CALM 0 0 1023.4 - 0.0 - - 10 - - - -
27/12:30am 16.0 ENE 3 4 1023.6 - 0.0 - - 10 - - - -
27/12:00am 17.2 ENE 6 7 1023.8 F 0.0 - - 10 - - - -
 
Date/Time
EDT
Temp
°C
Wind Pressure Rain since
9am
mm
Weather Cloud Vis
km
Sea
Height
m
Swell
Dir  Spd
kts
Gust
kts
hPa Trend Height
m
Period
s
Dir
26/11:30pm 17.4 ENE 9 12 1024.0 - 0.0 - - 10 - - - -
26/11:00pm 17.6 E 9 13 1024.3 - 0.0 - - 10 - - - -
26/10:30pm 17.5 E 12 16 1024.5 - 0.0 - - 10 - - - -
26/10:00pm 17.7 E 14 17 1024.5 - 0.0 - - 10 - - - -
26/09:30pm 18.0 E 13 18 1024.4 - 0.0 - - 10 - - - -
26/09:00pm 18.1 E 15 19 1024.2 R 0.0 - - 10 - - - -
26/08:30pm 18.1 E 14 21 1023.9 - 0.0 - - 10 - - - -
26/08:00pm 18.5 E 15 19 1023.6 - 0.0 - - 10 - - - -
26/07:30pm 19.0 E 17 21 1023.3 - 0.0 - - 10 - - - -
26/07:00pm 19.8 E 18 23 1023.0 - 0.0 - - 10 - - - -
26/06:30pm 20.0 E 19 23 1022.7 - 0.0 - - 10 - - - -
26/06:00pm 20.5 E 20 25 1022.6 F 0.0 - - 10 - - - -
26/05:30pm 21.1 E 21 26 1022.4 - 0.0 - - 10 - - - -
26/05:00pm 22.3 E 21 26 1022.4 - 0.0 - - 10 - - - -
26/04:30pm 21.6 E 21 26 1022.5 - 0.0 - - 10 - - - -
26/04:00pm 21.9 E 22 25 1022.6 - 0.0 - - 10 - - - -
26/03:30pm 22.3 E 21 25 1022.8 - 0.0 - - 10 - - - -
26/03:00pm 22.3 E 22 27 1023.0 R 0.0 - - 10 - - - -
26/02:30pm 22.1 E 20 26 1023.2 - 0.0 - - 10 - - - -
26/02:00pm 22.2 E 20 25 1023.4 - 0.0 - - 10 - - - -
26/01:30pm 22.0 E 21 26 1023.5 - 0.0 - - 10 - - - -
26/01:00pm 21.9 E 21 26 1023.6 - 0.0 - - 10 - - - -
26/12:30pm 21.9 E 23 27 1023.9 - 0.0 - - 10 - - - -
26/12:00pm 22.1 E 20 25 1024.1 S 0.0 - - 10 - - - -
26/11:30am 22.0 E 18 23 1024.3 - 0.0 - - 10 - - - -
26/11:00am 21.4 E 19 24 1024.5 - 0.0 - - 10 - - - -
26/10:30am 20.7 E 19 23 1024.2 - 0.0 - - 10 - - - -
26/10:00am 20.7 E 18 23 1024.3 - 0.0 - - 10 - - - -
26/09:30am 20.3 E 17 22 1024.1 - 0.0 - - 10 - - - -
26/09:00am 19.5 ENE 18 21 1024.3 R 0.0 - - 10 - - - -
26/08:30am 19.0 ENE 16 20 1024.2 - 0.0 - - 10 - - - -
26/08:00am 18.5 ENE 12 16 1023.9 - 0.0 - - 10 - - - -
26/07:30am 17.4 ENE 9 11 1023.7 - 0.0 - - 10 - - - -
26/07:00am 16.7 E 14 17 1023.4 - 0.0 - - 10 - - - -
26/06:30am 17.1 E 13 17 1023.2 - 0.0 - Partly cloudy 10 - - - -
26/06:00am 17.0 E 10 12 1023.0 F 0.0 - Mostly cloudy 10 - - - -
26/05:30am 16.9 ENE 12 16 1022.5 - 0.0 - Partly cloudy 10 - - - -
26/05:00am 16.9 ENE 14 21 1022.2 - 0.0 - - 10 - - - -
26/04:30am 16.9 E 15 20 1022.4 - 0.0 - Partly cloudy 10 - - - -
26/04:00am 17.9 E 15 19 1022.9 - 0.0 - Cloudy 10 - - - -
26/03:30am 17.7 E 18 26 1022.9 - 0.0 - Partly cloudy 10 - - - -
26/03:00am 17.9 E 18 23 1023.1 R 0.0 - Cloudy 10 - - - -
26/02:30am 18.0 E 21 27 1023.1 - 0.0 - Partly cloudy 10 - - - -
26/02:00am 18.1 E 20 25 1023.3 - 0.0 - Partly cloudy 10 - - - -
26/01:30am 18.3 ENE 20 25 1023.6 - 0.0 - Partly cloudy 10 - - - -
26/01:00am 18.4 E 19 25 1023.8 - 0.0 - Cloudy 10 - - - -
26/12:30am 18.4 E 19 25 1023.8 - 0.0 - Cloudy 10 - - - -
26/12:00am 18.4 E 19 24 1023.9 R 0.0 - Cloudy 10 - - - -
 
Date/Time
EDT
Temp
°C
Wind Pressure Rain since
9am
mm
Weather Cloud Vis
km
Sea
Height
m
Swell
Dir  Spd
kts
Gust
kts
hPa Trend Height
m
Period
s
Dir
25/11:30pm 18.3 ENE 20 25 1024.0 - 0.0 - Partly cloudy 10 - - - -
25/11:00pm 18.1 E 19 25 1024.1 - 0.0 - Partly cloudy 10 - - - -
25/10:30pm 17.8 E 20 25 1024.0 - 0.0 - Cloudy 10 - - - -
25/10:00pm 17.5 E 22 27 1024.0 - 0.0 - Partly cloudy 10 - - - -
25/09:30pm 17.6 E 24 30 1023.9 - 0.0 - Partly cloudy 10 - - - -
25/09:00pm 18.0 E 20 24 1023.6 S 0.0 - Cloudy 10 - - - -
25/08:30pm 18.1 E 22 29 1023.3 - 0.0 - Partly cloudy 10 - - - -
25/08:00pm 17.7 ESE 17 22 1023.1 - 0.0 - Partly cloudy 10 - - - -
25/07:30pm 17.6 E 19 25 1023.0 - 0.0 - Partly cloudy 10 - - - -
25/07:00pm 18.0 E 16 21 1022.8 - 0.0 - Partly cloudy 10 - - - -
25/06:30pm 18.3 ESE 13 17 1022.7 - 0.0 - Partly cloudy 10 - - - -
25/06:00pm 18.7 E 16 20 1022.4 F 0.0 - Cloudy 10 - - - -
25/05:30pm 19.2 ESE 14 17 1022.3 - 0.0 - Partly cloudy 10 - - - -
25/05:00pm 19.2 ESE 14 17 1022.2 - 0.0 - Partly cloudy 10 - - - -
25/04:30pm 19.7 ESE 14 19 1022.3 - 0.0 - Partly cloudy 10 - - - -
25/04:00pm 20.6 ESE 14 18 1022.1 - 0.0 - Cloudy 10 - - - -
25/03:30pm 20.7 ESE 11 15 1022.3 - 0.0 - Partly cloudy 10 - - - -
25/03:00pm 20.8 SE 12 15 1022.6 F 0.0 - Cloudy 10 - - - -
25/02:30pm 20.7 ESE 11 15 1023.1 - 0.0 - Partly cloudy 10 - - - -
25/02:00pm 20.6 SE 10 14 1023.3 - 0.0 - Partly cloudy 10 - - - -
25/01:30pm 19.9 SE 9 13 1023.6 - 0.0 - Partly cloudy 10 - - - -
25/01:00pm 19.0 ESE 11 15 1023.9 - 0.0 - Partly cloudy 10 - - - -
25/12:30pm 19.1 ESE 6 10 1024.1 - 0.0 - Partly cloudy 10 - - - -
25/12:00pm 19.4 SE 4 7 1024.4 F 0.0 - Partly cloudy 10 - - - -
25/11:30am 18.7 SSE 5 7 1024.7 - 0.0 - Cloudy 10 - - - -
25/11:00am 17.3 SSE 4 7 1025.1 - 0.0 - Cloudy 10 - - - -
25/10:30am 16.6 SW 5 7 1025.3 - 0.0 - Cloudy 10 - - - -
25/10:00am 16.1 WNW 4 7 1025.1 - 0.0 - Partly cloudy 10 - - - -

Other Formats:

Comma delimited format used in spreadsheet applications
http://www.bom.gov.au/fwo/IDV60701/IDV60701.94907.axf

JavaScript Object Notation format (JSON) in row-major order
http://www.bom.gov.au/fwo/IDV60701/IDV60701.94907.json